Time;durP1;ratioP1;P1;durP2;ratioP2;P2;SDS_P1;SDS_P2;PMS_P1;PMS_P2;Temp;Humidity;BMP_temperature;BMP_pressure;BME280_temperature;BME280_humidity;BME280_pressure;Samples;Min_cycle;Max_cycle;Signal;HPM_P1;HPM_P2
2023/04/24 00:00:33;;;;;;;1.20;0.93;;;;;;;15.13;56.80;96443.94;5089440;28;20197;-68
2023/04/24 00:02:58;;;;;;;2.17;1.00;;;;;;;15.16;56.84;96446.19;5089621;28;20274;-69
2023/04/24 00:05:24;;;;;;;1.20;0.90;;;;;;;15.19;56.89;96448.44;5087969;28;20178;-70
2023/04/24 00:07:53;;;;;;;2.40;0.93;;;;;;;15.19;56.87;96448.44;5087889;28;20180;-69
2023/04/24 00:10:18;;;;;;;1.10;0.70;;;;;;;15.23;56.80;96458.59;5089746;28;20604;-70
2023/04/24 00:12:44;;;;;;;3.00;1.00;;;;;;;15.26;56.24;96466.09;5093925;28;20427;-69
2023/04/24 00:15:10;;;;;;;3.60;0.93;;;;;;;15.23;56.34;96469.94;5080422;28;20585;-68
2023/04/24 00:17:35;;;;;;;1.47;0.90;;;;;;;15.17;56.41;96455.72;5061943;28;20574;-69
2023/04/24 00:20:04;;;;;;;2.23;1.10;;;;;;;15.27;56.11;96450.06;5099598;28;20796;-69
2023/04/24 00:22:30;;;;;;;5.43;1.00;;;;;;;15.24;56.23;96460.22;5061949;28;20628;-69
2023/04/24 00:24:55;;;;;;;1.73;1.00;;;;;;;15.23;56.00;96458.59;5074769;28;20427;-69
2023/04/24 00:27:21;;;;;;;1.20;0.80;;;;;;;15.02;56.17;96468.25;5089378;28;20186;-68
2023/04/24 00:29:46;;;;;;;2.90;0.97;;;;;;;15.04;55.83;96476.81;5086504;28;20249;-67
2023/04/24 00:32:12;;;;;;;3.40;0.90;;;;;;;15.17;55.88;96474.22;5070647;28;20296;-70
2023/04/24 00:34:37;;;;;;;2.20;0.80;;;;;;;15.22;55.42;96478.09;5074324;28;20177;-70
2023/04/24 00:37:03;;;;;;;1.30;0.80;;;;;;;15.17;55.63;96466.28;5071452;28;20190;-68
2023/04/24 00:39:28;;;;;;;2.93;0.90;;;;;;;15.20;55.88;96455.34;5073044;28;20573;-68
2023/04/24 00:41:55;;;;;;;4.23;1.30;;;;;;;15.15;55.72;96460.38;5084313;28;20285;-71
2023/04/24 00:44:20;;;;;;;1.53;0.87;;;;;;;15.12;55.70;96458.16;5074787;28;20282;-69
2023/04/24 00:46:47;;;;;;;1.57;0.80;;;;;;;15.08;55.83;96461.38;5088346;28;20420;-68
2023/04/24 00:49:13;;;;;;;6.30;1.00;;;;;;;15.18;55.59;96457.34;5070627;28;20193;-69
2023/04/24 00:51:40;;;;;;;1.10;0.83;;;;;;;15.11;55.57;96446.00;5070895;28;20527;-68
2023/04/24 00:54:06;;;;;;;3.03;1.00;;;;;;;15.10;55.87;96454.91;5092888;28;20423;-69
2023/04/24 00:56:31;;;;;;;1.63;1.00;;;;;;;15.04;55.54;96455.69;5089290;28;20551;-68
2023/04/24 00:58:57;;;;;;;1.00;0.70;;;;;;;15.11;55.36;96440.72;5089484;28;20264;-69
2023/04/24 01:01:23;;;;;;;5.33;0.90;;;;;;;15.24;55.55;96433.84;5072650;28;20206;-69
2023/04/24 01:03:49;;;;;;;3.10;1.73;;;;;;;15.30;55.90;96438.28;5093849;28;20427;-69
2023/04/24 01:06:15;;;;;;;1.80;1.20;;;;;;;15.26;55.34;96440.53;5089750;28;20256;-69
2023/04/24 01:08:41;;;;;;;1.80;0.83;;;;;;;15.34;55.44;96439.53;5050917;28;20424;-69
2023/04/24 01:11:07;;;;;;;2.67;1.00;;;;;;;15.31;55.24;96434.63;5093872;28;20212;-69
2023/04/24 01:13:33;;;;;;;2.07;0.80;;;;;;;15.39;55.58;96428.34;5098834;28;20416;-69
2023/04/24 01:15:58;;;;;;;1.77;0.90;;;;;;;15.33;55.69;96429.97;5097212;28;20617;-69
2023/04/24 01:18:24;;;;;;;3.83;1.00;;;;;;;15.41;55.49;96427.13;5067435;28;20200;-70
2023/04/24 01:20:51;;;;;;;1.93;0.90;;;;;;;15.46;55.89;96432.63;5096007;28;20565;-70
2023/04/24 01:23:16;;;;;;;1.40;0.80;;;;;;;15.46;55.31;96431.81;5069814;28;21078;-69
2023/04/24 01:25:42;;;;;;;2.37;1.00;;;;;;;15.31;55.16;96429.38;5059367;28;20440;-70
2023/04/24 01:28:08;;;;;;;2.10;0.90;;;;;;;15.39;55.41;96428.34;5070761;28;20937;-70
2023/04/24 01:30:33;;;;;;;2.00;0.90;;;;;;;15.38;55.45;96414.31;5086074;28;20225;-69
2023/04/24 01:32:59;;;;;;;2.23;1.10;;;;;;;15.31;56.45;96416.97;5052449;28;20174;-69
2023/04/24 01:35:25;;;;;;;2.63;1.20;;;;;;;15.39;56.09;96415.97;5050356;28;20198;-68
2023/04/24 01:37:50;;;;;;;0.97;0.80;;;;;;;15.37;55.98;96412.72;5091566;28;20622;-70
2023/04/24 01:40:16;;;;;;;1.00;0.77;;;;;;;15.39;56.44;96409.88;5096643;28;20185;-68
2023/04/24 01:42:42;;;;;;;3.57;0.93;;;;;;;15.34;56.21;96415.78;5096242;28;20185;-69
2023/04/24 01:45:10;;;;;;;1.20;0.90;;;;;;;15.24;56.10;96408.25;5063985;28;20197;-70
2023/04/24 01:47:36;;;;;;;3.57;0.90;;;;;;;15.26;56.27;96398.28;5068576;28;20433;-68
2023/04/24 01:50:02;;;;;;;3.80;1.00;;;;;;;15.31;56.79;96408.25;5070033;28;20432;-70
2023/04/24 01:52:30;;;;;;;1.90;1.20;;;;;;;15.35;56.60;96406.84;5094796;28;20208;-69
2023/04/24 01:54:56;;;;;;;1.53;1.13;;;;;;;15.29;56.20;96407.63;5077384;28;20467;-69
2023/04/24 01:57:22;;;;;;;1.67;1.00;;;;;;;15.29;56.53;96405.81;5069761;28;20431;-68
2023/04/24 01:59:47;;;;;;;1.53;0.90;;;;;;;15.32;56.49;96412.50;5073747;28;20213;-69
2023/04/24 02:02:13;;;;;;;1.67;0.97;;;;;;;15.38;56.65;96413.53;5080068;28;20232;-69
2023/04/24 02:04:39;;;;;;;2.73;1.10;;;;;;;15.39;56.74;96413.31;5090760;28;20185;-69
2023/04/24 02:07:04;;;;;;;1.97;0.97;;;;;;;15.29;57.00;96416.38;5083898;28;20863;-69
2023/04/24 02:09:30;;;;;;;4.87;1.10;;;;;;;15.25;57.42;96419.63;5079550;28;20502;-71
2023/04/24 02:11:56;;;;;;;2.60;0.80;;;;;;;15.33;57.18;96414.94;5053582;28;20652;-69
2023/04/24 02:14:21;;;;;;;4.53;0.87;;;;;;;15.36;57.05;96417.19;5095115;28;20200;-68
2023/04/24 02:16:47;;;;;;;1.83;1.00;;;;;;;15.24;57.78;96410.88;5086360;28;20696;-69
2023/04/24 02:19:12;;;;;;;4.13;1.20;;;;;;;15.15;57.69;96415.53;5065399;28;20300;-68
2023/04/24 02:21:38;;;;;;;3.40;0.90;;;;;;;15.12;57.69;96413.28;5087527;28;20824;-69
2023/04/24 02:24:03;;;;;;;1.40;0.90;;;;;;;15.13;57.74;96409.63;5067773;28;20189;-69
2023/04/24 02:26:30;;;;;;;1.20;0.87;;;;;;;15.04;57.53;96413.47;5086545;28;20239;-70
2023/04/24 02:28:56;;;;;;;2.40;1.03;;;;;;;15.09;58.01;96411.06;5079866;28;20551;-69
2023/04/24 02:31:21;;;;;;;1.37;0.80;;;;;;;14.92;58.11;96401.88;5078559;28;20452;-69
2023/04/24 02:33:47;;;;;;;1.77;0.83;;;;;;;15.00;58.03;96412.25;5088606;28;20751;-69
2023/04/24 02:36:13;;;;;;;4.03;1.00;;;;;;;15.10;58.22;96414.50;5074508;28;20252;-68
2023/04/24 02:38:39;;;;;;;2.43;1.00;;;;;;;15.12;57.76;96421.19;5087110;28;20743;-68
2023/04/24 02:41:06;;;;;;;3.23;1.00;;;;;;;15.10;58.02;96427.69;5087028;28;20452;-69
2023/04/24 02:43:32;;;;;;;1.57;0.80;;;;;;;15.11;58.52;96424.88;5069642;28;20532;-69
2023/04/24 02:45:57;;;;;;;4.00;1.30;;;;;;;15.06;58.59;96427.28;5090139;28;20416;-69
2023/04/24 02:48:23;;;;;;;1.70;0.90;;;;;;;15.07;58.80;96426.28;5088791;28;21132;-68
2023/04/24 02:50:50;;;;;;;1.30;0.90;;;;;;;15.10;58.69;96423.25;5080369;28;20202;-69
2023/04/24 02:53:15;;;;;;;3.10;0.90;;;;;;;15.15;58.66;96418.16;5085123;28;20238;-69
2023/04/24 02:55:41;;;;;;;1.47;0.80;;;;;;;15.10;58.69;96417.13;5096846;28;20452;-69
2023/04/24 02:58:06;;;;;;;1.20;1.00;;;;;;;15.07;59.49;96413.09;5056800;28;20194;-69
2023/04/24 03:00:32;;;;;;;1.50;1.00;;;;;;;15.04;59.84;96409.03;5089105;28;20708;-69
2023/04/24 03:02:57;;;;;;;5.50;1.00;;;;;;;15.03;59.97;96411.84;5093350;28;20181;-69
2023/04/24 03:05:22;;;;;;;3.73;1.00;;;;;;;15.02;59.64;96404.94;5092069;28;20181;-69
2023/04/24 03:07:48;;;;;;;1.33;1.07;;;;;;;14.98;59.76;96395.81;5083966;28;20177;-70
2023/04/24 03:10:13;;;;;;;1.37;0.80;;;;;;;14.93;60.24;96396.44;5087465;28;20209;-69
2023/04/24 03:12:39;;;;;;;1.20;1.10;;;;;;;14.85;60.11;96400.06;5077486;28;20209;-70
2023/04/24 03:15:05;;;;;;;2.07;1.10;;;;;;;14.82;60.16;96400.44;5072334;28;20644;-69
2023/04/24 03:17:30;;;;;;;3.57;1.10;;;;;;;14.82;59.89;96395.19;5069761;28;20714;-70
2023/04/24 03:19:56;;;;;;;2.57;1.00;;;;;;;14.70;59.82;96399.41;5086849;28;20421;-70
2023/04/24 03:22:21;;;;;;;1.07;0.70;;;;;;;14.71;60.08;96403.66;5073716;28;20205;-70
2023/04/24 03:24:47;;;;;;;1.43;0.90;;;;;;;14.68;60.52;96398.78;5091240;28;20273;-70
2023/04/24 03:27:12;;;;;;;1.17;0.97;;;;;;;14.65;60.37;96391.22;5072906;28;20186;-70
2023/04/24 03:29:38;;;;;;;1.47;1.13;;;;;;;14.69;60.47;96398.56;5080447;28;20192;-69
2023/04/24 03:32:03;;;;;;;3.23;0.80;;;;;;;14.64;60.47;96397.50;5067283;28;20241;-70
2023/04/24 03:34:28;;;;;;;1.90;0.90;;;;;;;14.64;60.34;96392.22;5092580;28;20249;-70
2023/04/24 03:36:54;;;;;;;5.10;1.10;;;;;;;14.64;60.65;96398.34;5063539;28;20201;-69
2023/04/24 03:39:19;;;;;;;1.77;1.10;;;;;;;14.73;60.31;96397.16;5071820;28;20177;-69
2023/04/24 03:41:45;;;;;;;1.30;0.80;;;;;;;14.70;60.14;96394.13;5059924;28;20206;-69
2023/04/24 03:44:10;;;;;;;2.33;1.17;;;;;;;14.66;60.19;96393.69;5053656;28;20182;-69
2023/04/24 03:46:37;;;;;;;2.50;0.97;;;;;;;14.63;60.45;96380.88;5094378;28;20200;-70
2023/04/24 03:49:02;;;;;;;2.50;1.10;;;;;;;14.61;60.66;96382.91;5087964;28;20424;-70
2023/04/24 03:51:30;;;;;;;1.00;0.90;;;;;;;14.64;60.71;96381.69;5092947;28;20288;-70
2023/04/24 03:53:55;;;;;;;1.97;0.90;;;;;;;14.63;60.07;96385.34;5093964;28;20541;-71
2023/04/24 03:56:20;;;;;;;1.20;0.90;;;;;;;14.61;60.82;96393.44;5093048;28;20474;-69
2023/04/24 03:58:46;;;;;;;4.17;1.40;;;;;;;14.63;60.56;96395.88;5091444;28;20642;-70
2023/04/24 04:01:11;;;;;;;1.37;1.10;;;;;;;14.68;61.08;96396.13;5089483;28;20280;-70
2023/04/24 04:03:37;;;;;;;1.77;0.97;;;;;;;14.66;60.15;96401.59;5087801;28;20193;-70
2023/04/24 04:06:02;;;;;;;3.57;0.90;;;;;;;14.61;60.16;96397.94;5083574;28;20178;-70
2023/04/24 04:08:28;;;;;;;1.10;0.90;;;;;;;14.58;60.37;96399.94;5070470;28;20189;-69
2023/04/24 04:10:53;;;;;;;2.13;0.90;;;;;;;14.63;60.28;96401.16;5089689;28;20209;-69
2023/04/24 04:13:19;;;;;;;1.20;0.80;;;;;;;14.60;59.89;96412.91;5070984;28;20214;-68
2023/04/24 04:15:45;;;;;;;2.30;0.90;;;;;;;14.57;60.22;96419.41;5085979;28;20278;-70
2023/04/24 04:18:10;;;;;;;1.73;0.70;;;;;;;14.62;60.05;96429.34;5087325;28;20190;-71
2023/04/24 04:20:36;;;;;;;2.10;0.93;;;;;;;14.65;59.89;96438.69;5090216;28;20454;-69
2023/04/24 04:23:01;;;;;;;1.10;0.77;;;;;;;14.62;59.51;96445.19;5082479;28;20182;-69
2023/04/24 04:25:27;;;;;;;1.87;0.80;;;;;;;14.67;59.43;96470.97;5091356;28;20182;-70
2023/04/24 04:27:53;;;;;;;1.50;0.80;;;;;;;14.65;59.46;96483.53;5076105;28;20755;-69
2023/04/24 04:30:20;;;;;;;1.50;0.87;;;;;;;14.65;60.02;96491.44;5078624;28;20235;-69
2023/04/24 04:32:46;;;;;;;2.00;1.10;;;;;;;14.59;60.26;96493.03;5075629;28;20427;-71
2023/04/24 04:35:11;;;;;;;2.17;1.00;;;;;;;14.47;59.61;96492.78;5090815;28;20465;-69
2023/04/24 04:37:38;;;;;;;3.83;1.10;;;;;;;14.45;58.38;96497.41;5079326;28;20272;-68
2023/04/24 04:40:06;;;;;;;1.33;1.00;;;;;;;14.36;57.71;96501.22;5089785;28;20562;-69
2023/04/24 04:42:33;;;;;;;3.93;0.90;;;;;;;14.13;56.94;96503.09;5073216;28;20553;-71
2023/04/24 04:44:59;;;;;;;2.30;1.20;;;;;;;14.20;57.39;96495.25;5058162;28;20432;-69
2023/04/24 04:47:26;;;;;;;2.70;1.30;;;;;;;14.19;57.12;96501.53;5078028;28;20939;-69
2023/04/24 04:49:52;;;;;;;1.40;1.30;;;;;;;14.16;57.22;96503.72;5089347;28;20431;-69
2023/04/24 04:52:18;;;;;;;6.83;1.57;;;;;;;14.16;56.98;96499.25;5090862;28;20531;-68
2023/04/24 04:54:43;;;;;;;2.13;1.40;;;;;;;14.19;57.23;96504.16;5100392;28;20182;-68
2023/04/24 04:57:10;;;;;;;1.93;1.07;;;;;;;14.13;57.76;96502.28;5067714;28;21161;-68
2023/04/24 04:59:35;;;;;;;1.60;1.50;;;;;;;14.17;57.17;96513.25;5093044;28;20192;-67
2023/04/24 05:02:01;;;;;;;2.23;1.20;;;;;;;14.07;57.09;96510.97;5091731;28;20439;-70
2023/04/24 05:04:26;;;;;;;3.33;1.60;;;;;;;13.92;56.84;96509.22;5056124;28;20182;-68
2023/04/24 05:06:52;;;;;;;2.60;1.40;;;;;;;14.01;57.54;96517.81;5072253;28;20173;-70
2023/04/24 05:09:18;;;;;;;2.23;1.10;;;;;;;14.01;57.25;96514.34;5092922;28;20221;-67
2023/04/24 05:11:43;;;;;;;1.50;1.40;;;;;;;13.96;57.72;96526.28;5080168;28;20221;-69
2023/04/24 05:14:09;;;;;;;2.20;1.23;;;;;;;14.01;57.71;96530.97;5074991;28;20303;-69
2023/04/24 05:16:34;;;;;;;1.50;1.40;;;;;;;14.08;57.01;96533.66;5059381;28;20205;-69
2023/04/24 05:19:00;;;;;;;2.30;1.77;;;;;;;14.06;57.21;96543.56;5083780;28;20272;-69
2023/04/24 05:21:26;;;;;;;2.70;1.33;;;;;;;13.99;57.69;96543.53;5090553;28;20288;-68
2023/04/24 05:23:52;;;;;;;3.63;1.20;;;;;;;14.05;57.83;96555.13;5100567;28;20592;-71
2023/04/24 05:26:17;;;;;;;3.70;1.50;;;;;;;14.04;57.81;96545.59;5089965;28;20434;-69
2023/04/24 05:28:43;;;;;;;1.23;1.13;;;;;;;13.97;57.28;96561.31;5093355;28;20235;-69
2023/04/24 05:31:08;;;;;;;2.23;1.47;;;;;;;14.07;57.43;96563.66;5091210;28;20220;-68
2023/04/24 05:33:34;;;;;;;2.40;1.33;;;;;;;14.04;57.57;96569.28;5071403;28;20221;-68
2023/04/24 05:35:59;;;;;;;3.03;1.57;;;;;;;14.10;57.13;96571.19;5088454;28;20238;-69
2023/04/24 05:38:25;;;;;;;1.80;1.47;;;;;;;14.13;57.17;96568.97;5071560;28;20228;-69
2023/04/24 05:40:50;;;;;;;2.10;1.43;;;;;;;14.18;56.73;96565.75;5082627;28;20202;-69
2023/04/24 05:43:16;;;;;;;1.40;1.10;;;;;;;13.98;56.53;96573.50;5081400;28;20323;-68
2023/04/24 05:45:41;;;;;;;1.60;1.20;;;;;;;14.08;56.57;96571.34;5085316;28;20218;-70
2023/04/24 05:48:07;;;;;;;1.93;1.60;;;;;;;14.15;56.78;96576.69;5092895;28;20253;-71
2023/04/24 05:50:32;;;;;;;1.60;1.40;;;;;;;14.09;56.31;96575.63;5070732;28;20190;-68
2023/04/24 05:52:58;;;;;;;1.80;1.33;;;;;;;14.08;56.64;96581.09;5058046;28;20194;-70
2023/04/24 05:55:25;;;;;;;1.80;1.70;;;;;;;13.91;56.33;96583.97;5091617;28;20197;-70
2023/04/24 05:57:50;;;;;;;4.93;1.60;;;;;;;13.95;56.36;96582.59;5068983;28;20269;-69
2023/04/24 06:00:17;;;;;;;3.90;1.77;;;;;;;13.92;57.03;96588.25;5068994;28;20427;-69
2023/04/24 06:02:43;;;;;;;4.13;1.73;;;;;;;13.97;57.79;96604.31;5076514;28;20209;-69
2023/04/24 06:05:09;;;;;;;4.20;2.00;;;;;;;13.94;56.67;96594.13;5081868;28;20458;-70
2023/04/24 06:07:34;;;;;;;3.30;2.00;;;;;;;13.97;56.55;96595.56;5091201;28;20173;-70
2023/04/24 06:10:00;;;;;;;4.00;2.00;;;;;;;14.01;57.19;96601.28;5065365;28;20430;-71
2023/04/24 06:12:26;;;;;;;1.90;1.70;;;;;;;13.95;57.74;96601.03;5081565;28;20203;-68
2023/04/24 06:14:51;;;;;;;2.00;1.70;;;;;;;14.03;58.09;96602.75;5059763;28;20689;-69
2023/04/24 06:17:17;;;;;;;3.90;2.17;;;;;;;14.17;57.73;96598.38;5092887;28;20243;-70
2023/04/24 06:19:43;;;;;;;7.50;2.20;;;;;;;14.37;58.17;96603.00;5076121;28;20190;-69
2023/04/24 06:22:08;;;;;;;9.83;6.70;;;;;;;14.64;57.65;96600.56;5083888;28;20217;-70
2023/04/24 06:24:34;;;;;;;5.33;4.70;;;;;;;14.90;56.18;96600.75;5085993;28;20689;-69
2023/04/24 06:27:01;;;;;;;2.87;2.53;;;;;;;15.11;54.79;96596.41;5076959;28;20242;-70
2023/04/24 06:29:26;;;;;;;14.57;10.77;;;;;;;15.35;54.81;96589.78;5089407;28;20236;-69
2023/04/24 06:31:52;;;;;;;5.93;3.83;;;;;;;15.61;53.81;96600.66;5063905;28;20500;-70
2023/04/24 06:34:17;;;;;;;3.13;2.20;;;;;;;15.84;51.73;96607.41;5081850;28;20198;-71
2023/04/24 06:36:43;;;;;;;3.83;2.60;;;;;;;16.05;50.59;96603.81;5076488;28;20244;-72
2023/04/24 06:39:08;;;;;;;5.30;3.73;;;;;;;16.00;49.48;96604.41;5097395;28;20204;-71
2023/04/24 06:41:34;;;;;;;4.13;1.70;;;;;;;16.16;49.24;96589.16;5096347;28;20228;-71
2023/04/24 06:44:00;;;;;;;3.33;3.03;;;;;;;16.26;49.61;96581.63;5057186;28;20189;-71
2023/04/24 06:46:27;;;;;;;3.97;3.53;;;;;;;16.43;50.05;96593.44;5081923;28;20181;-70
2023/04/24 06:48:56;;;;;;;5.80;3.00;;;;;;;16.58;50.04;96587.91;5072582;28;20778;-71
2023/04/24 06:51:25;;;;;;;2.43;2.20;;;;;;;16.72;48.16;96591.38;5057579;28;20984;-70
2023/04/24 06:53:55;;;;;;;2.97;2.67;;;;;;;16.67;48.49;96601.75;5094604;28;20517;-70
2023/04/24 06:56:21;;;;;;;3.47;2.40;;;;;;;16.68;49.01;96603.38;5086239;28;20467;-70
2023/04/24 06:58:47;;;;;;;2.47;2.20;;;;;;;16.69;47.87;96594.44;5097871;28;20427;-69
2023/04/24 07:01:12;;;;;;;3.90;1.90;;;;;;;16.62;47.06;96593.63;5069007;28;20202;-72
2023/04/24 07:03:38;;;;;;;3.77;2.20;;;;;;;16.47;47.08;96604.41;5082811;28;20252;-71
2023/04/24 07:06:04;;;;;;;3.23;2.03;;;;;;;16.63;47.94;96589.97;5081341;28;20619;-71
2023/04/24 07:08:32;;;;;;;3.13;1.97;;;;;;;16.62;47.87;96598.94;5078709;28;20187;-70
2023/04/24 07:10:59;;;;;;;5.67;2.07;;;;;;;16.41;47.69;96595.47;5073760;28;20466;-70
2023/04/24 07:13:25;;;;;;;2.30;1.80;;;;;;;16.27;46.78;96602.59;5064270;28;20420;-69
2023/04/24 07:15:52;;;;;;;1.90;1.80;;;;;;;15.91;47.91;96613.53;5072226;28;20471;-70
2023/04/24 07:18:18;;;;;;;2.90;1.87;;;;;;;15.76;47.88;96611.84;5070017;28;20504;-71
2023/04/24 07:20:43;;;;;;;2.13;1.70;;;;;;;15.56;48.71;96617.09;5064454;28;20950;-69
2023/04/24 07:23:09;;;;;;;1.87;1.77;;;;;;;15.58;50.28;96624.81;5072185;28;20272;-70
2023/04/24 07:25:35;;;;;;;2.20;2.00;;;;;;;15.58;50.60;96624.81;5084259;28;20186;-69
2023/04/24 07:28:00;;;;;;;2.57;1.93;;;;;;;15.34;50.41;96629.59;5068355;28;20186;-71
2023/04/24 07:30:28;;;;;;;3.20;2.10;;;;;;;15.58;50.60;96624.81;5079888;28;20206;-70
2023/04/24 07:32:54;;;;;;;1.60;1.50;;;;;;;15.70;49.83;96625.03;5075468;28;20214;-70
2023/04/24 07:35:19;;;;;;;4.97;2.60;;;;;;;15.90;49.91;96623.28;5084554;28;20495;-69
2023/04/24 07:37:45;;;;;;;1.97;1.80;;;;;;;16.13;48.83;96628.19;5090918;28;20234;-71
2023/04/24 07:40:12;;;;;;;2.93;1.90;;;;;;;16.38;46.92;96629.44;5093177;28;20182;-69
2023/04/24 07:42:38;;;;;;;1.97;1.87;;;;;;;16.53;45.69;96630.06;5092329;28;20226;-69
2023/04/24 07:45:04;;;;;;;3.30;1.93;;;;;;;16.60;44.83;96622.13;5101350;28;20420;-72
2023/04/24 07:47:29;;;;;;;1.57;1.47;;;;;;;16.56;44.04;96636.75;5071358;28;20198;-71
2023/04/24 07:49:55;;;;;;;1.50;1.40;;;;;;;16.32;42.92;96644.28;5092730;28;20416;-71
2023/04/24 07:52:20;;;;;;;1.37;1.27;;;;;;;15.96;42.56;96658.69;5094994;28;20206;-70
2023/04/24 07:54:46;;;;;;;3.33;1.60;;;;;;;15.42;43.81;96650.53;5098540;28;20642;-71
2023/04/24 07:57:11;;;;;;;3.60;1.50;;;;;;;15.77;43.48;96655.75;5091002;28;20776;-70
2023/04/24 07:59:37;;;;;;;1.47;1.37;;;;;;;15.85;42.91;96653.97;5075307;28;20540;-70
2023/04/24 08:02:02;;;;;;;1.97;1.40;;;;;;;15.56;42.56;96674.38;5089809;28;20288;-69
2023/04/24 08:04:28;;;;;;;1.60;1.50;;;;;;;15.69;43.45;96668.34;5095531;28;20275;-69
2023/04/24 08:06:53;;;;;;;2.37;1.50;;;;;;;15.70;42.35;96673.41;5076799;28;20182;-71
2023/04/24 08:09:19;;;;;;;1.97;1.43;;;;;;;15.49;42.39;96675.16;5067467;28;20209;-71
2023/04/24 08:11:44;;;;;;;1.73;1.57;;;;;;;15.55;42.59;96675.38;5090513;28;20266;-70
2023/04/24 08:14:12;;;;;;;2.37;1.63;;;;;;;15.56;42.92;96682.28;5058982;28;20239;-68
2023/04/24 08:16:37;;;;;;;1.43;1.33;;;;;;;15.59;42.43;96689.81;5071277;28;20258;-68
2023/04/24 08:19:03;;;;;;;2.13;1.40;;;;;;;15.59;41.71;96679.25;5063221;28;20864;-68
2023/04/24 08:21:29;;;;;;;3.50;1.73;;;;;;;15.79;41.53;96689.91;5063539;28;20206;-68
2023/04/24 08:23:54;;;;;;;1.47;1.20;;;;;;;15.98;41.15;96688.38;5096674;28;20599;-69
2023/04/24 08:26:19;;;;;;;1.90;1.60;;;;;;;15.78;40.25;96690.91;5059266;28;20214;-69
2023/04/24 08:28:45;;;;;;;1.43;1.33;;;;;;;16.35;40.59;96683.56;5059817;28;20268;-70
2023/04/24 08:31:11;;;;;;;2.90;1.83;;;;;;;16.66;39.58;96674.19;5070387;28;20214;-70
2023/04/24 08:33:36;;;;;;;2.50;1.70;;;;;;;16.98;39.05;96687.66;5018346;28;20187;-71
2023/04/24 08:36:06;;;;;;;1.77;1.40;;;;;;;17.21;37.97;96686.38;5068250;28;20292;-68
2023/04/24 08:38:31;;;;;;;3.73;1.67;;;;;;;17.31;37.56;96685.97;5082652;28;20200;-71
2023/04/24 08:40:59;;;;;;;1.87;1.60;;;;;;;17.18;36.97;96686.78;5044197;28;20444;-69
2023/04/24 08:43:25;;;;;;;3.00;1.77;;;;;;;17.59;37.49;96684.81;5076938;28;20213;-70
2023/04/24 08:45:51;;;;;;;1.70;1.60;;;;;;;17.85;37.10;96686.56;5063306;28;20440;-71
2023/04/24 08:48:17;;;;;;;2.10;1.47;;;;;;;17.75;37.47;96710.88;5082226;28;20435;-69
2023/04/24 08:50:44;;;;;;;2.57;1.70;;;;;;;18.07;37.02;96704.84;5095990;28;20501;-73
2023/04/24 08:53:10;;;;;;;3.60;1.57;;;;;;;18.23;36.04;96706.16;5080177;28;20694;-70
2023/04/24 08:55:35;;;;;;;2.30;1.30;;;;;;;18.25;36.08;96702.28;5094892;28;20458;-71
2023/04/24 08:58:02;;;;;;;3.33;1.47;;;;;;;18.25;36.84;96712.06;5076288;28;20189;-70
2023/04/24 09:00:28;;;;;;;3.10;1.40;;;;;;;18.12;36.99;96715.63;5047043;28;20186;-69
2023/04/24 09:02:55;;;;;;;5.50;1.33;;;;;;;18.24;36.53;96711.28;5081882;28;20473;-68
2023/04/24 09:05:23;;;;;;;1.73;1.37;;;;;;;18.03;37.31;96730.13;5094962;28;20186;-68
2023/04/24 09:07:56;;;;;;;3.30;1.53;;;;;;;18.10;38.08;96722.97;5072579;28;20878;-69
2023/04/24 09:10:25;;;;;;;5.20;1.40;;;;;;;18.10;37.74;96722.97;5055724;28;20433;-68
2023/04/24 09:12:51;;;;;;;3.33;1.50;;;;;;;18.11;37.90;96733.34;5069222;28;20502;-69
2023/04/24 09:15:18;;;;;;;2.80;1.20;;;;;;;17.81;38.01;96735.72;5089685;28;20460;-69
2023/04/24 09:17:44;;;;;;;2.17;1.60;;;;;;;17.65;36.72;96739.66;5049239;28;20424;-69
2023/04/24 09:20:10;;;;;;;3.00;1.57;;;;;;;17.38;36.76;96745.00;5074693;28;20459;-68
2023/04/24 09:22:36;;;;;;;1.70;1.60;;;;;;;17.39;36.73;96751.13;5099456;28;20228;-69
2023/04/24 09:25:07;;;;;;;1.90;1.50;;;;;;;17.13;37.15;96752.78;5082603;28;20186;-70
2023/04/24 09:27:33;;;;;;;4.33;1.50;;;;;;;17.08;37.42;96753.38;5077171;28;20419;-69
2023/04/24 09:29:59;;;;;;;2.50;1.33;;;;;;;17.65;38.45;96751.03;5037788;28;20897;-69
2023/04/24 09:32:25;;;;;;;1.87;1.63;;;;;;;18.02;39.30;96753.19;5083092;28;20584;-69
2023/04/24 09:35:25;;;;;;;4.47;1.40;;;;;;;18.10;39.64;96746.84;5034259;28;20876;-70
2023/04/24 09:37:50;;;;;;;2.67;1.50;;;;;;;18.39;38.48;96744.66;4994689;28;20812;-70
2023/04/24 09:40:21;;;;;;;1.83;1.40;;;;;;;18.55;37.71;96744.13;5080240;28;20424;-71
2023/04/24 09:42:56;;;;;;;1.67;1.47;;;;;;;18.79;37.25;96744.34;5089326;28;20640;-69
2023/04/24 09:45:22;;;;;;;1.87;1.20;;;;;;;18.92;36.26;96742.63;5068585;28;20415;-71
2023/04/24 09:47:51;;;;;;;1.30;1.20;;;;;;;18.78;34.16;96745.38;5063605;28;20432;-69
2023/04/24 09:50:17;;;;;;;1.50;1.20;;;;;;;18.42;33.14;96749.50;5093645;28;20426;-70
2023/04/24 09:52:43;;;;;;;3.10;1.00;;;;;;;17.93;34.21;96762.38;5085203;28;20808;-69
2023/04/24 09:55:16;;;;;;;1.83;1.07;;;;;;;17.47;33.40;96775.53;5089164;28;20268;-70
2023/04/24 09:57:49;;;;;;;2.47;1.20;;;;;;;17.17;34.07;96764.59;5062462;28;20473;-70
2023/04/24 10:00:26;;;;;;;1.20;0.90;;;;;;;17.16;34.71;96765.59;5076049;28;20252;-71
2023/04/24 10:03:00;;;;;;;2.10;1.20;;;;;;;17.04;34.94;96776.81;5058587;28;20436;-69
2023/04/24 10:05:32;;;;;;;2.20;1.23;;;;;;;16.95;35.38;96775.41;5078057;28;20470;-70
2023/04/24 10:08:02;;;;;;;1.60;0.97;;;;;;;17.50;35.22;96782.28;5064565;28;20428;-70
2023/04/24 10:10:28;;;;;;;3.10;1.30;;;;;;;18.03;34.08;96780.50;5086456;28;20959;-71
2023/04/24 10:12:53;;;;;;;2.63;1.30;;;;;;;18.30;32.88;96783.03;5070734;28;20440;-70
2023/04/24 10:15:21;;;;;;;1.87;1.07;;;;;;;19.00;33.65;96776.91;5091484;28;20213;-70
2023/04/24 10:17:53;;;;;;;2.23;1.40;;;;;;;19.14;31.47;96782.91;5068969;28;20242;-70
2023/04/24 10:20:24;;;;;;;1.23;1.13;;;;;;;19.27;31.86;96780.16;5066000;28;20416;-70
2023/04/24 10:22:52;;;;;;;1.40;1.00;;;;;;;19.26;31.11;96788.34;5075975;28;20684;-70
2023/04/24 10:25:23;;;;;;;1.20;0.90;;;;;;;19.76;30.33;96777.63;5070159;28;20768;-69
2023/04/24 10:27:49;;;;;;;3.00;1.03;;;;;;;19.66;30.50;96774.66;5050471;28;20420;-70
2023/04/24 10:30:15;;;;;;;1.73;1.30;;;;;;;19.55;30.04;96780.69;5091067;28;20439;-71
2023/04/24 10:32:41;;;;;;;1.63;1.10;;;;;;;19.46;30.92;96774.88;5072410;28;20811;-71
2023/04/24 10:35:07;;;;;;;1.40;1.30;;;;;;;19.56;30.26;96777.00;5062906;28;20265;-72
2023/04/24 10:37:39;;;;;;;3.83;1.60;;;;;;;19.85;30.66;96769.34;5068867;28;20186;-70
2023/04/24 10:40:06;;;;;;;1.40;1.30;;;;;;;19.75;30.85;96789.28;5069134;28;20545;-71
2023/04/24 10:42:31;;;;;;;1.20;1.10;;;;;;;19.34;30.71;96782.75;5093715;28;20487;-70
2023/04/24 10:44:57;;;;;;;1.30;1.20;;;;;;;19.04;30.95;96791.38;5072549;28;20473;-71
2023/04/24 10:47:23;;;;;;;1.20;0.80;;;;;;;18.45;31.97;96794.19;5085789;28;20182;-71
2023/04/24 10:49:51;;;;;;;1.57;1.00;;;;;;;17.98;32.81;96798.91;5084218;28;20836;-70
2023/04/24 10:52:16;;;;;;;1.20;1.03;;;;;;;17.80;33.49;96800.34;5078928;28;20197;-70
2023/04/24 10:54:44;;;;;;;1.40;1.30;;;;;;;17.52;34.04;96804.06;5086595;28;20527;-70
2023/04/24 10:57:22;;;;;;;2.13;1.17;;;;;;;17.00;34.91;96811.84;5075790;28;20208;-71
2023/04/24 10:59:50;;;;;;;1.77;1.10;;;;;;;17.08;35.13;96808.19;5084557;28;20502;-70
2023/04/24 11:02:16;;;;;;;1.47;1.07;;;;;;;16.84;35.31;96813.03;5078104;28;20436;-70
2023/04/24 11:04:44;;;;;;;1.43;1.33;;;;;;;16.80;35.58;96809.13;5065693;28;20416;-70
2023/04/24 11:07:10;;;;;;;1.70;1.00;;;;;;;16.40;35.93;96831.84;5094549;28;20459;-70
2023/04/24 11:09:36;;;;;;;4.70;1.10;;;;;;;16.21;36.22;96827.31;5067675;28;20445;-70
2023/04/24 11:12:10;;;;;;;1.03;0.93;;;;;;;16.20;36.91;96839.69;5068160;28;20468;-71
2023/04/24 11:14:59;;;;;;;1.23;1.00;;;;;;;16.21;37.00;96845.81;5071575;28;20235;-70
2023/04/24 11:17:34;;;;;;;2.03;1.07;;;;;;;16.24;37.08;96837.50;5082065;28;20423;-70
2023/04/24 11:20:07;;;;;;;3.87;1.20;;;;;;;16.32;37.22;96841.78;5077258;28;20428;-70
2023/04/24 11:22:35;;;;;;;1.50;1.33;;;;;;;16.38;37.38;96825.91;5071795;28;20471;-70
2023/04/24 11:25:03;;;;;;;4.60;2.57;;;;;;;16.52;37.56;96836.53;5075029;28;20459;-70
2023/04/24 11:27:39;;;;;;;3.90;3.30;;;;;;;16.83;37.71;96829.91;5075383;28;20415;-70
2023/04/24 11:30:05;;;;;;;6.23;2.93;;;;;;;17.24;37.02;96833.44;5062248;28;20443;-71